Terminal Aerodrome Forecast
Issued by NWS Sioux Falls, SD

Home | Current Version | Previous Version | Graphics & Text | Print | Product List | Glossary On
Versions: 1 2 3 4 5 6 7 8 9 10 11 12 13 14
000
FTUS43 KFSD 230905 AAB
TAFHON
TAF AMD
KHON 230905Z 2309/2406 01013KT P6SM BKN022
      TEMPO 2309/2311 SCT022 BKN150
     FM231100 02010KT P6SM SCT022 BKN150
     FM231600 04011KT P6SM OVC020
     FM231800 05012KT 3SM -SN OVC008
     FM240000 03019G28KT 1SM -SN BLSN OVC007=

USA.gov is the U.S. government's official web portal to all federal, state and local government web resources and services.